Airfield :
LOGIN :

Register | Disclaimer

   EN    FR    IT 

 










Legend :    VFR   Marginal VFR   IFR   Intensive IFR   Very Intensive IFR
Visi :
Ceiling :
>= 8 km
>= 3000ft
5 to 8 km
1000 to 3000 ft
1500m to 5 km
500 to 1000 ft
800 to 1500m
200 to 500 ft
< 800m
< 200 ft
Symbols :   Thunderstorms  Fog  Heavy snow  Heavy precipitations  Wind > 20 kt
SIGMETs :     Misc.  Thunderstorms  Icing  Turbulence  Mountain Waves  Volcanic Ashes






- Airport Elevation : 194 ft
- IATA code : LME


LFRM - Le Mans

CURRENT METAR :
  • 151230Z AUTO 22010KT 190V260 CAVOK 11/06 Q1006 TEMPO SHRA BKN018TCU

EXPIRED METARs :
  • 151200Z AUTO 21010KT 180V240 CAVOK 11/05 Q1006 TEMPO SHRA BKN018TCU
  • 151130Z AUTO 21007KT 180V240 CAVOK 11/06 Q1006 TEMPO SHRA BKN018TCU
  • 151100Z AUTO 22006KT 190V260 CAVOK 10/06 Q1006 TEMPO 4000 SHRA SCT020TCU
  • 151030Z AUTO 21007KT 170V250 CAVOK 10/05 Q1006 TEMPO 4000 SHRA SCT020TCU
  • 151000Z AUTO 21006KT 170V250 CAVOK 09/06 Q1006 TEMPO 4000 SHRA SCT020TCU

TAF TAF LFRM
Valid from the 15 at 12:00 until the 16 at 12:00 UTC


151100Z 1512/1612 22010KT 9999 SCT020 BKN060
TEMPO 1512/1522 5000 SHRA BKN018TCU
PROB30
TEMPO 1600/1612 4500 -RA
BECMG 1606/1608 15005KT 4500 -RA
PROB30
TEMPO 1606/1612 2500 RA BKN008 BKN020



MET'MAP, your aeronautical weather chart ! - Copyright ORBIFLY December 2007 - Disclaimer

ORBIFLY MET'MAP TEAM :

Programming & Development : Alexandra Zaïnal
Concept & original design : Baudouin d'Aumeries
Assistance for programming : Marc-Olivier Méhu
Technical & hardware support : Manuel Goepfert

Contact : metmap@orbifly.com




SOURCES & CREDITS :

   NOAA